Time;durP1;ratioP1;P1;durP2;ratioP2;P2;SDS_P1;SDS_P2;PMS_P1;PMS_P2;Temp;Humidity;BMP_temperature;BMP_pressure;BME280_temperature;BME280_humidity;BME280_pressure;Samples;Min_cycle;Max_cycle;Signal;HPM_P1;HPM_P2
2023/07/23 00:01:12;;;;;;;5.93;2.90;;;;;;;;;;5068302;28;20031;-80
2023/07/23 00:03:38;;;;;;;9.70;2.95;;;;;;;;;;5066950;28;20067;-80
2023/07/23 00:06:19;;;;;;;7.22;2.92;;;;;;;;;;5042041;28;20041;-80
2023/07/23 00:08:52;;;;;;;4.53;2.70;;;;;;;;;;5064757;28;20028;-80
2023/07/23 00:11:20;;;;;;;;;;;;;;;;;;5073820;28;20055;-80
2023/07/23 00:13:46;;;;;;;5.50;2.53;;;;;;;;;;5087159;28;19908;-80
2023/07/23 00:16:46;;;;;;;6.80;2.50;;;;;;;;;;5088646;28;20111;-80
2023/07/23 00:22:34;;;;;;;7.07;2.78;;;;;;;;;;5086419;28;20463;-80
2023/07/23 00:25:03;;;;;;;7.10;2.80;;;;;;;;;;5088057;28;20766;-80
2023/07/23 00:27:35;;;;;;;6.30;2.70;;;;;;;;;;5056991;28;20725;-80
2023/07/23 00:30:11;;;;;;;5.35;2.65;;;;;;;;;;5066695;28;20410;-80
2023/07/23 00:32:37;;;;;;;5.78;2.88;;;;;;;;;;5067776;28;20028;-80
2023/07/23 00:35:09;;;;;;;5.10;2.80;;;;;;;;;;5056362;28;20053;-80
2023/07/23 00:40:46;;;;;;;5.07;2.85;;;;;;;;;;5067843;28;20035;-80
2023/07/23 00:43:23;;;;;;;7.30;3.33;;;;;;;;;;5067492;28;20149;-80
2023/07/23 00:45:52;;;;;;;6.80;2.70;;;;;;;;;;5066381;28;20194;-80
2023/07/23 00:48:19;;;;;;;4.20;2.80;;;;;;;;;;5067034;28;20072;-80
2023/07/23 00:50:45;;;;;;;5.43;2.85;;;;;;;;;;5067349;28;20043;-80
2023/07/23 00:53:11;;;;;;;6.70;2.80;;;;;;;;;;5065350;28;20037;-80
2023/07/23 00:55:37;;;;;;;7.85;2.42;;;;;;;;;;5066364;28;20044;-80
2023/07/23 00:58:06;;;;;;;6.22;2.70;;;;;;;;;;5067186;28;20039;-80
2023/07/23 01:07:20;;;;;;;3.55;2.30;;;;;;;;;;4965384;28;20207;-80
2023/07/23 01:09:51;;;;;;;4.03;2.30;;;;;;;;;;5064628;28;20040;-80
2023/07/23 01:12:30;;;;;;;3.63;2.40;;;;;;;;;;5093306;28;20070;-80
2023/07/23 01:15:06;;;;;;;4.55;2.53;;;;;;;;;;5106896;28;20114;-80
2023/07/23 01:17:41;;;;;;;4.55;2.60;;;;;;;;;;5106880;28;20039;-80
2023/07/23 01:20:08;;;;;;;4.15;2.50;;;;;;;;;;5106225;28;20050;-80
2023/07/23 01:22:35;;;;;;;11.43;2.63;;;;;;;;;;5107277;28;20103;-80
2023/07/23 01:25:01;;;;;;;5.15;2.50;;;;;;;;;;5108003;28;20024;-80
2023/07/23 01:27:27;;;;;;;4.30;2.65;;;;;;;;;;5075279;28;20048;-80
2023/07/23 01:29:56;;;;;;;9.18;2.65;;;;;;;;;;5085375;28;20126;-80
2023/07/23 01:32:21;;;;;;;7.40;3.15;;;;;;;;;;5085308;28;20044;-80
2023/07/23 01:34:50;;;;;;;6.45;2.47;;;;;;;;;;5085894;28;20093;-80
2023/07/23 01:37:17;;;;;;;4.93;2.50;;;;;;;;;;5087357;28;20094;-80
2023/07/23 01:39:51;;;;;;;5.72;2.50;;;;;;;;;;5068457;28;20036;-80
2023/07/23 01:42:18;;;;;;;5.55;2.75;;;;;;;;;;5086447;28;20040;-80
2023/07/23 01:44:43;;;;;;;6.25;2.40;;;;;;;;;;5068145;28;20521;-80
2023/07/23 01:47:33;;;;;;;8.00;2.72;;;;;;;;;;5086161;28;20032;-79
2023/07/23 01:49:58;;;;;;;6.32;2.30;;;;;;;;;;5074502;28;20411;-80
2023/07/23 01:52:28;;;;;;;4.55;2.42;;;;;;;;;;5065219;28;20603;-80
2023/07/23 01:55:02;;;;;;;6.38;2.40;;;;;;;;;;5065853;28;20044;-80
2023/07/23 01:57:28;;;;;;;4.03;2.45;;;;;;;;;;5057517;28;20122;-80
2023/07/23 02:00:22;;;;;;;6.32;2.70;;;;;;;;;;5059146;28;20509;-80
2023/07/23 02:02:51;;;;;;;4.55;2.60;;;;;;;;;;5085361;28;20047;-80
2023/07/23 02:05:21;;;;;;;3.92;2.28;;;;;;;;;;5083991;28;20040;-80
2023/07/23 02:08:04;;;;;;;8.60;2.67;;;;;;;;;;5084482;28;20457;-80
2023/07/23 02:10:32;;;;;;;9.55;2.55;;;;;;;;;;5067504;28;20505;-80
2023/07/23 02:12:58;;;;;;;7.63;2.42;;;;;;;;;;5086202;28;20024;-80
2023/07/23 02:15:24;;;;;;;6.95;2.70;;;;;;;;;;5088153;28;20044;-80
2023/07/23 02:17:50;;;;;;;8.15;2.50;;;;;;;;;;5066688;28;20047;-80
2023/07/23 02:20:16;;;;;;;3.67;2.05;;;;;;;;;;5066347;28;20128;-81
2023/07/23 02:22:45;;;;;;;4.28;2.60;;;;;;;;;;5075681;28;20103;-80
2023/07/23 02:25:18;;;;;;;4.75;2.33;;;;;;;;;;5087116;28;20107;-80
2023/07/23 02:27:48;;;;;;;3.83;2.30;;;;;;;;;;5070053;28;20139;-80
2023/07/23 02:30:19;;;;;;;5.07;2.33;;;;;;;;;;5064414;28;20094;-80
2023/07/23 02:32:48;;;;;;;4.40;2.50;;;;;;;;;;5047822;28;20048;-80
2023/07/23 02:35:23;;;;;;;5.78;2.42;;;;;;;;;;5065671;28;20037;-80
2023/07/23 02:37:55;;;;;;;3.72;2.63;;;;;;;;;;5064673;28;20050;-80
2023/07/23 02:40:21;;;;;;;3.25;2.20;;;;;;;;;;5065981;28;20131;-80
2023/07/23 02:42:53;;;;;;;5.05;2.35;;;;;;;;;;5065403;28;20132;-80
2023/07/23 02:45:24;;;;;;;3.92;2.33;;;;;;;;;;5047538;28;20058;-80
2023/07/23 02:47:52;;;;;;;7.85;3.05;;;;;;;;;;5067010;28;20048;-80
2023/07/23 02:50:18;;;;;;;4.70;2.47;;;;;;;;;;5065854;28;20127;-80
2023/07/23 02:52:44;;;;;;;4.95;2.55;;;;;;;;;;5064535;28;20129;-80
2023/07/23 02:55:10;;;;;;;5.28;2.42;;;;;;;;;;5047721;28;20398;-80
2023/07/23 02:57:41;;;;;;;4.97;2.38;;;;;;;;;;5065534;28;20045;-80
2023/07/23 03:00:11;;;;;;;5.57;2.30;;;;;;;;;;5064791;28;20033;-80
2023/07/23 03:02:37;;;;;;;2.70;2.20;;;;;;;;;;5065850;28;20079;-80
2023/07/23 03:05:03;;;;;;;3.47;2.30;;;;;;;;;;5064944;28;20593;-80
2023/07/23 03:07:38;;;;;;;5.13;2.38;;;;;;;;;;5046315;28;20036;-80
2023/07/23 03:10:04;;;;;;;8.85;2.40;;;;;;;;;;5066400;28;20731;-80
2023/07/23 03:12:32;;;;;;;5.72;2.20;;;;;;;;;;5067251;28;20506;-80
2023/07/23 03:14:57;;;;;;;3.75;2.30;;;;;;;;;;5066828;28;20040;-80
2023/07/23 03:17:23;;;;;;;6.00;2.50;;;;;;;;;;5066968;28;20032;-80
2023/07/23 03:19:51;;;;;;;4.50;2.22;;;;;;;;;;5068555;28;20097;-80
2023/07/23 03:22:18;;;;;;;6.53;2.20;;;;;;;;;;5050097;28;20021;-80
2023/07/23 03:24:44;;;;;;;3.03;1.90;;;;;;;;;;5067558;28;20430;-80
2023/07/23 03:27:13;;;;;;;4.25;2.40;;;;;;;;;;5079000;28;20055;-80
2023/07/23 03:29:39;;;;;;;5.50;2.33;;;;;;;;;;5088346;28;20067;-80
2023/07/23 03:32:08;;;;;;;3.95;2.30;;;;;;;;;;5088838;28;20048;-80
2023/07/23 03:34:34;;;;;;;7.07;2.05;;;;;;;;;;5087638;28;20074;-80
2023/07/23 03:36:59;;;;;;;4.28;2.17;;;;;;;;;;5089645;28;20023;-80
2023/07/23 03:39:25;;;;;;;3.72;2.20;;;;;;;;;;5088431;28;20149;-80
2023/07/23 03:41:51;;;;;;;3.65;1.92;;;;;;;;;;5088498;28;20056;-80
2023/07/23 03:44:17;;;;;;;5.85;2.13;;;;;;;;;;5088814;28;20127;-80
2023/07/23 03:47:10;;;;;;;6.03;2.10;;;;;;;;;;5069867;28;20614;-80
2023/07/23 03:49:38;;;;;;;9.68;2.45;;;;;;;;;;5082153;28;20463;-80
2023/07/23 03:55:23;;;;;;;3.83;1.98;;;;;;;;;;5104735;28;20051;-80
2023/07/23 03:57:54;;;;;;;3.33;2.10;;;;;;;;;;5109520;28;20027;-80
2023/07/23 04:00:28;;;;;;;5.20;2.33;;;;;;;;;;5107626;28;20566;-80
2023/07/23 04:06:25;;;;;;;4.38;2.22;;;;;;;;;;5071684;28;20051;-80
2023/07/23 04:08:51;;;;;;;5.85;2.13;;;;;;;;;;5107888;28;20035;-80
2023/07/23 04:11:16;;;;;;;4.47;2.35;;;;;;;;;;5101341;28;20032;-80
2023/07/23 04:13:42;;;;;;;6.10;2.63;;;;;;;;;;5087402;28;20107;-80
2023/07/23 04:16:11;;;;;;;4.78;2.40;;;;;;;;;;5088663;28;20055;-80
2023/07/23 04:18:49;;;;;;;4.78;2.40;;;;;;;;;;5087242;28;20536;-80
2023/07/23 04:21:18;;;;;;;4.57;2.17;;;;;;;;;;5067344;28;20105;-80
2023/07/23 04:23:48;;;;;;;4.32;2.67;;;;;;;;;;5052794;28;20589;-80
2023/07/23 04:26:15;;;;;;;6.10;2.47;;;;;;;;;;5086378;28;20032;-80
2023/07/23 04:28:44;;;;;;;5.68;2.60;;;;;;;;;;5086994;28;20028;-80
2023/07/23 04:31:11;;;;;;;4.60;2.50;;;;;;;;;;5088468;28;20489;-80
2023/07/23 04:33:42;;;;;;;5.68;2.60;;;;;;;;;;5087508;28;20586;-80
2023/07/23 04:36:08;;;;;;;4.28;2.58;;;;;;;;;;5086272;28;20058;-80
2023/07/23 04:38:35;;;;;;;5.60;2.88;;;;;;;;;;5086340;28;20040;-80
2023/07/23 04:41:04;;;;;;;7.38;2.92;;;;;;;;;;5086357;28;20460;-80
2023/07/23 04:43:50;;;;;;;5.97;2.92;;;;;;;;;;5078984;28;20032;-80
2023/07/23 04:53:50;;;;;;;4.90;2.72;;;;;;;;;;4928406;29;20098;-80
2023/07/23 04:56:57;;;;;;;7.53;2.97;;;;;;;;;;4933053;28;20083;-80
2023/07/23 04:59:23;;;;;;;6.18;2.58;;;;;;;;;;4951160;28;20126;-80
2023/07/23 05:01:52;;;;;;;5.40;2.80;;;;;;;;;;4962507;28;20126;-80
2023/07/23 05:05:04;;;;;;;5.50;3.28;;;;;;;;;;5026119;28;20068;-80
2023/07/23 05:07:33;;;;;;;5.93;2.83;;;;;;;;;;5066392;28;20047;-80
2023/07/23 05:10:02;;;;;;;5.55;2.92;;;;;;;;;;5067166;28;20032;-80
2023/07/23 05:12:28;;;;;;;5.43;2.67;;;;;;;;;;5050354;28;20388;-80
2023/07/23 05:17:55;;;;;;;9.07;2.92;;;;;;;;;;5046218;28;20082;-80
2023/07/23 05:20:21;;;;;;;6.65;3.13;;;;;;;;;;5047033;28;20029;-80
2023/07/23 05:22:47;;;;;;;8.45;3.50;;;;;;;;;;5045870;28;20024;-80
2023/07/23 05:25:18;;;;;;;6.38;2.95;;;;;;;;;;5046667;28;20086;-80
2023/07/23 05:28:13;;;;;;;;;;;;;;;;;;;;;
2023/07/23 05:30:58;;;;;;;7.25;3.22;;;;;;;;;;5069035;28;20039;-80
2023/07/23 05:33:26;;;;;;;5.22;3.15;;;;;;;;;;5107413;28;20031;-80
2023/07/23 05:35:53;;;;;;;10.40;4.25;;;;;;;;;;5104753;28;20643;-80
2023/07/23 05:38:18;;;;;;;7.32;3.78;;;;;;;;;;5088107;28;20047;-80
2023/07/23 05:40:53;;;;;;;8.48;3.78;;;;;;;;;;5105628;28;20027;-80
2023/07/23 05:43:31;;;;;;;10.32;4.28;;;;;;;;;;5107255;28;20030;-80
2023/07/23 05:46:00;;;;;;;8.27;3.88;;;;;;;;;;5084725;28;20499;-80
2023/07/23 05:48:32;;;;;;;9.23;4.72;;;;;;;;;;5057057;28;20128;-80
2023/07/23 05:50:58;;;;;;;12.95;4.18;;;;;;;;;;5086890;28;20036;-80
2023/07/23 05:53:27;;;;;;;9.30;4.63;;;;;;;;;;5064173;28;20044;-80
2023/07/23 05:55:55;;;;;;;9.02;4.20;;;;;;;;;;5075481;28;20544;-80
2023/07/23 05:58:21;;;;;;;8.57;4.20;;;;;;;;;;5086567;28;20048;-80
2023/07/23 06:00:52;;;;;;;6.30;3.60;;;;;;;;;;5086007;28;20635;-80
2023/07/23 06:03:32;;;;;;;6.85;3.67;;;;;;;;;;5041680;28;20043;-80
2023/07/23 06:05:58;;;;;;;8.05;3.97;;;;;;;;;;5085225;28;20471;-80
2023/07/23 06:08:24;;;;;;;7.75;3.90;;;;;;;;;;5086121;28;20036;-80
2023/07/23 06:13:36;;;;;;;9.10;3.92;;;;;;;;;;5065323;28;20064;-80
2023/07/23 06:16:02;;;;;;;7.97;3.97;;;;;;;;;;5065996;28;20081;-80
2023/07/23 06:25:14;;;;;;;;;;;;;;;;;;;;;
2023/07/23 06:27:40;;;;;;;6.47;3.30;;;;;;;;;;5046380;28;20039;-80
2023/07/23 06:30:27;;;;;;;8.65;3.63;;;;;;;;;;5045361;28;20106;-80
2023/07/23 06:33:12;;;;;;;;;;;;;;;;;;;;;
2023/07/23 06:39:29;;;;;;;6.53;3.17;;;;;;;;;;5007753;28;20049;-80
2023/07/23 06:41:55;;;;;;;8.52;3.75;;;;;;;;;;5042943;28;20123;-80
2023/07/23 06:44:30;;;;;;;9.98;3.47;;;;;;;;;;5051305;28;20180;-80
2023/07/23 06:46:57;;;;;;;7.85;3.50;;;;;;;;;;5066779;28;20041;-80
2023/07/23 06:49:37;;;;;;;10.57;3.72;;;;;;;;;;5036758;28;20025;-80
2023/07/23 06:52:12;;;;;;;9.63;4.32;;;;;;;;;;5049779;28;20072;-80
2023/07/23 07:01:51;;;;;;;8.93;3.78;;;;;;;;;;4988616;28;20634;-80
2023/07/23 07:04:51;;;;;;;;;;;;;;;;;;;;;
2023/07/23 07:07:20;;;;;;;9.65;3.38;;;;;;;;;;5042140;28;20691;-80
2023/07/23 07:10:00;;;;;;;9.00;3.35;;;;;;;;;;5048013;28;20044;-80
2023/07/23 07:12:31;;;;;;;9.70;3.80;;;;;;;;;;5048878;28;20032;-80
2023/07/23 07:14:58;;;;;;;9.00;3.92;;;;;;;;;;5046557;28;20029;-79
2023/07/23 07:17:26;;;;;;;7.70;3.60;;;;;;;;;;5053867;28;20472;-78
2023/07/23 07:19:52;;;;;;;6.78;3.33;;;;;;;;;;5063831;28;20076;-78
2023/07/23 07:22:18;;;;;;;7.97;3.38;;;;;;;;;;5047474;28;20499;-78
2023/07/23 07:24:56;;;;;;;6.68;3.65;;;;;;;;;;5047830;28;20036;-79
2023/07/23 07:27:22;;;;;;;7.10;3.60;;;;;;;;;;5046253;28;20115;-79
2023/07/23 07:29:48;;;;;;;6.18;3.50;;;;;;;;;;5040985;28;20473;-79
2023/07/23 07:32:16;;;;;;;7.05;3.50;;;;;;;;;;5019720;28;20128;-79
2023/07/23 07:34:42;;;;;;;6.30;3.63;;;;;;;;;;5014220;28;20534;-79
2023/07/23 07:37:11;;;;;;;7.85;3.65;;;;;;;;;;5029056;28;20115;-79
2023/07/23 07:40:00;;;;;;;;;;;;;;;;;;;;;
2023/07/23 07:43:11;;;;;;;6.18;3.15;;;;;;;;;;5025162;28;20416;-81
2023/07/23 07:45:38;;;;;;;8.45;3.10;;;;;;;;;;5033399;28;20083;-81
2023/07/23 07:48:15;;;;;;;7.15;4.18;;;;;;;;;;5037074;28;20045;-81
2023/07/23 07:51:10;;;;;;;5.78;3.17;;;;;;;;;;5041563;28;20029;-81
2023/07/23 07:53:43;;;;;;;7.28;3.60;;;;;;;;;;5028338;28;20037;-81
2023/07/23 08:06:24;;;;;;;;;;;;;;;;;;;;;
2023/07/23 08:09:15;;;;;;;7.13;3.30;;;;;;;;;;5000319;28;20050;-81
2023/07/23 08:11:44;;;;;;;6.45;3.10;;;;;;;;;;5022161;28;20029;-81
2023/07/23 08:14:41;;;;;;;6.40;3.00;;;;;;;;;;4997450;28;20037;-81
2023/07/23 08:17:20;;;;;;;6.30;3.20;;;;;;;;;;5049290;28;20056;-81
2023/07/23 08:19:55;;;;;;;6.55;3.55;;;;;;;;;;5040038;28;20025;-81
2023/07/23 08:23:25;;;;;;;7.03;3.13;;;;;;;;;;5044069;28;20036;-81
2023/07/23 08:25:43;;;;;;;;;;;;;;;;;;;;;
2023/07/23 08:28:28;;;;;;;7.00;3.60;;;;;;;;;;5026361;28;20028;-81
2023/07/23 08:31:01;;;;;;;6.00;3.50;;;;;;;;;;5039870;28;20048;-81
2023/07/23 08:33:31;;;;;;;6.20;2.97;;;;;;;;;;5042739;28;20032;-81
2023/07/23 08:36:03;;;;;;;7.13;3.50;;;;;;;;;;5044005;28;20037;-81
2023/07/23 08:38:29;;;;;;;6.93;3.28;;;;;;;;;;5039296;28;20044;-81
2023/07/23 08:41:10;;;;;;;6.25;3.55;;;;;;;;;;5031595;28;20044;-81
2023/07/23 08:44:21;;;;;;;;;;;;;;;;;;;;;
2023/07/23 08:46:48;;;;;;;6.95;3.63;;;;;;;;;;5045258;28;20445;-81
2023/07/23 08:49:19;;;;;;;6.13;3.15;;;;;;;;;;5047130;28;20028;-82
2023/07/23 08:55:13;;;;;;;6.78;3.20;;;;;;;;;;5033402;28;20072;-81
2023/07/23 08:57:45;;;;;;;6.60;3.30;;;;;;;;;;5036801;28;20029;-81
2023/07/23 09:00:27;;;;;;;5.10;3.33;;;;;;;;;;5046968;28;20029;-81
2023/07/23 09:03:06;;;;;;;4.60;3.33;;;;;;;;;;5043174;28;20044;-81
2023/07/23 09:05:47;;;;;;;;;;;;;;;;;;;;;
2023/07/23 09:08:13;;;;;;;6.97;2.70;;;;;;;;;;5033997;28;20045;-81
2023/07/23 09:11:10;;;;;;;6.03;3.20;;;;;;;;;;5042510;28;20859;-81
2023/07/23 09:14:04;;;;;;;5.82;3.35;;;;;;;;;;4967789;28;20052;-81
2023/07/23 09:16:45;;;;;;;5.50;3.20;;;;;;;;;;5028689;28;20030;-81
2023/07/23 09:19:21;;;;;;;8.35;3.50;;;;;;;;;;5012319;28;20057;-81
2023/07/23 09:21:49;;;;;;;6.28;3.20;;;;;;;;;;5048295;28;20125;-81
2023/07/23 09:24:20;;;;;;;6.70;3.25;;;;;;;;;;5030545;28;20474;-81
2023/07/23 09:27:31;;;;;;;4.80;2.88;;;;;;;;;;5032344;28;20060;-81
2023/07/23 09:33:57;;;;;;;4.82;3.17;;;;;;;;;;5044095;28;20153;-81
2023/07/23 09:43:56;;;;;;;5.80;3.35;;;;;;;;;;4872066;29;20032;-82
2023/07/23 09:46:30;;;;;;;5.90;2.90;;;;;;;;;;4940397;28;20189;-82
2023/07/23 09:49:02;;;;;;;5.97;2.92;;;;;;;;;;5046561;28;20041;-81
2023/07/23 09:52:21;;;;;;;5.22;2.53;;;;;;;;;;5062166;28;20501;-82
2023/07/23 09:54:37;;;;;;;5.82;3.25;;;;;;;;;;5030275;28;20544;-81
2023/07/23 09:57:30;;;;;;;5.40;3.08;;;;;;;;;;5003362;28;20176;-81
2023/07/23 10:00:02;;;;;;;6.15;3.65;;;;;;;;;;5020526;28;20042;-81
2023/07/23 10:02:39;;;;;;;7.30;3.05;;;;;;;;;;5033653;28;20099;-81
2023/07/23 10:05:20;;;;;;;;;;;;;;;;;;;;;
2023/07/23 10:07:52;;;;;;;4.95;3.13;;;;;;;;;;5030664;28;20512;-81
2023/07/23 10:10:31;;;;;;;5.07;3.05;;;;;;;;;;5035294;28;20037;-81
2023/07/23 10:12:56;;;;;;;7.47;3.20;;;;;;;;;;5023500;28;20049;-82
2023/07/23 10:16:49;;;;;;;5.85;3.35;;;;;;;;;;5038495;28;20055;-85
2023/07/23 10:22:31;;;;;;;5.70;3.03;;;;;;;;;;5024899;28;20079;-82
2023/07/23 10:25:26;;;;;;;6.30;3.15;;;;;;;;;;5027045;28;20145;-81
2023/07/23 10:31:58;;;;;;;;;;;;;;;;;;;;;
2023/07/23 10:34:59;;;;;;;7.15;2.53;;;;;;;;;;5043227;28;20033;-81
2023/07/23 10:41:57;;;;;;;;;;;;;;;;;;;;;
2023/07/23 10:51:23;;;;;;;5.03;3.22;;;;;;;;;;4922232;29;20500;-82
2023/07/23 11:04:07;;;;;;;5.85;3.05;;;;;;;;;;4922755;29;20061;-82
2023/07/23 11:07:16;;;;;;;5.68;2.70;;;;;;;;;;4914098;29;20070;-82
2023/07/23 11:09:57;;;;;;;4.95;2.92;;;;;;;;;;4956310;28;20092;-82
2023/07/23 11:12:33;;;;;;;6.50;2.70;;;;;;;;;;5009285;28;20041;-83
2023/07/23 11:15:19;;;;;;;4.95;2.80;;;;;;;;;;5043689;28;20053;-83
2023/07/23 11:17:57;;;;;;;5.18;2.70;;;;;;;;;;5040257;28;20029;-83
2023/07/23 11:23:32;;;;;;;5.80;2.63;;;;;;;;;;4977184;28;20047;-83
2023/07/23 11:26:39;;;;;;;6.68;2.88;;;;;;;;;;4970739;28;20043;-83
2023/07/23 11:29:05;;;;;;;4.18;2.83;;;;;;;;;;5001096;28;20045;-82
2023/07/23 11:31:34;;;;;;;6.60;2.95;;;;;;;;;;5023283;28;20120;-82
2023/07/23 11:34:15;;;;;;;4.60;2.70;;;;;;;;;;5044507;28;20048;-82
2023/07/23 11:36:41;;;;;;;6.25;3.92;;;;;;;;;;5026785;28;20538;-82
2023/07/23 11:42:17;;;;;;;4.80;2.78;;;;;;;;;;5029823;28;20079;-82
2023/07/23 11:45:02;;;;;;;6.03;2.90;;;;;;;;;;5030732;28;20574;-82
2023/07/23 11:47:52;;;;;;;5.00;2.42;;;;;;;;;;5044717;28;20032;-82
2023/07/23 11:50:20;;;;;;;5.40;2.97;;;;;;;;;;5044309;28;20464;-82
2023/07/23 11:52:50;;;;;;;5.35;2.88;;;;;;;;;;5041216;28;20474;-82
2023/07/23 11:55:19;;;;;;;7.07;3.13;;;;;;;;;;5051405;28;20052;-83
2023/07/23 12:07:08;;;;;;;5.00;2.72;;;;;;;;;;5019338;28;20036;-83
2023/07/23 12:15:57;;;;;;;9.18;3.13;;;;;;;;;;5052099;28;20131;-83
2023/07/23 12:18:27;;;;;;;5.32;2.63;;;;;;;;;;5054324;28;20604;-83
2023/07/23 12:24:48;;;;;;;5.10;2.88;;;;;;;;;;4959152;28;20039;-83
2023/07/23 12:27:22;;;;;;;3.47;2.35;;;;;;;;;;4933857;28;20118;-83
2023/07/23 12:34:04;;;;;;;;;;;;;;;;;;;;;
2023/07/23 12:36:46;;;;;;;;;;;;;;;;;;;;;
2023/07/23 12:43:40;;;;;;;5.18;2.85;;;;;;;;;;5005208;28;20042;-82
2023/07/23 12:46:23;;;;;;;7.85;2.90;;;;;;;;;;4990903;28;20120;-83
2023/07/23 12:48:49;;;;;;;6.82;3.25;;;;;;;;;;4989052;28;20147;-82
2023/07/23 12:51:29;;;;;;;4.35;2.65;;;;;;;;;;5026785;28;20053;-83
2023/07/23 12:53:58;;;;;;;3.85;2.53;;;;;;;;;;5050182;28;20044;-82
2023/07/23 12:56:44;;;;;;;5.65;2.85;;;;;;;;;;5037177;28;20048;-87
2023/07/23 12:59:12;;;;;;;5.20;3.10;;;;;;;;;;5050345;28;20040;-82
2023/07/23 13:01:41;;;;;;;3.90;2.70;;;;;;;;;;5062673;28;20078;-82
2023/07/23 13:08:22;;;;;;;3.83;2.53;;;;;;;;;;4873584;29;20155;-81
2023/07/23 13:11:14;;;;;;;2.90;2.17;;;;;;;;;;4864012;29;20781;-79
2023/07/23 13:13:48;;;;;;;4.13;3.00;;;;;;;;;;4875722;29;20522;-79
2023/07/23 13:16:19;;;;;;;4.10;2.35;;;;;;;;;;4931602;28;20508;-79
2023/07/23 13:19:38;;;;;;;11.00;2.75;;;;;;;;;;4943450;28;20485;-79
2023/07/23 13:22:10;;;;;;;2.75;2.20;;;;;;;;;;5054113;28;20044;-78
2023/07/23 13:24:36;;;;;;;3.30;2.20;;;;;;;;;;5048837;28;20044;-79
2023/07/23 13:27:03;;;;;;;3.90;2.50;;;;;;;;;;5060387;28;20067;-79
2023/07/23 13:29:43;;;;;;;4.45;2.42;;;;;;;;;;5056568;28;20133;-79
2023/07/23 13:32:17;;;;;;;3.35;2.33;;;;;;;;;;5059830;28;20040;-79
2023/07/23 13:37:57;;;;;;;3.50;2.38;;;;;;;;;;4978638;28;20105;-79
2023/07/23 13:47:14;;;;;;;4.35;2.47;;;;;;;;;;4942330;28;20072;-80
2023/07/23 13:50:13;;;;;;;3.75;2.40;;;;;;;;;;4974941;28;20886;-79
2023/07/23 13:52:41;;;;;;;5.55;2.17;;;;;;;;;;4975693;28;20030;-79
2023/07/23 13:55:08;;;;;;;3.47;2.63;;;;;;;;;;5021254;28;20067;-79
2023/07/23 13:57:34;;;;;;;4.18;2.30;;;;;;;;;;5044231;28;20139;-79
2023/07/23 14:00:06;;;;;;;6.10;2.35;;;;;;;;;;5055945;28;20191;-79
2023/07/23 14:02:32;;;;;;;2.63;2.00;;;;;;;;;;5063148;28;20543;-80
2023/07/23 14:05:06;;;;;;;2.83;2.53;;;;;;;;;;5062939;28;20175;-79
2023/07/23 14:07:34;;;;;;;3.67;2.20;;;;;;;;;;5058083;28;20079;-80
2023/07/23 14:10:00;;;;;;;3.97;2.10;;;;;;;;;;5063730;28;20138;-79
2023/07/23 14:12:26;;;;;;;3.35;2.20;;;;;;;;;;5062575;28;20574;-79
2023/07/23 14:14:52;;;;;;;2.28;1.90;;;;;;;;;;5061474;28;20047;-79
2023/07/23 14:21:01;;;;;;;2.88;2.00;;;;;;;;;;4988942;28;20129;-79
2023/07/23 14:23:51;;;;;;;3.13;2.20;;;;;;;;;;5042742;28;20075;-79
2023/07/23 14:26:25;;;;;;;3.00;2.05;;;;;;;;;;5047774;28;20048;-79
2023/07/23 14:29:00;;;;;;;4.05;2.22;;;;;;;;;;5046389;28;20513;-79
2023/07/23 14:31:55;;;;;;;;;;;;;;;;;;;;;
2023/07/23 14:34:24;;;;;;;3.55;1.83;;;;;;;;;;5051560;28;20328;-79
2023/07/23 14:36:58;;;;;;;3.00;1.80;;;;;;;;;;5045078;28;20403;-79
2023/07/23 14:42:48;;;;;;;3.42;1.90;;;;;;;;;;5045559;28;20132;-80
2023/07/23 14:45:17;;;;;;;3.95;2.42;;;;;;;;;;5052700;28;20434;-79
2023/07/23 14:47:59;;;;;;;;;;;;;;;;;;;;;
2023/07/23 14:50:54;;;;;;;3.63;1.92;;;;;;;;;;5049449;28;20037;-79
2023/07/23 14:53:20;;;;;;;2.95;2.20;;;;;;;;;;5044490;28;20128;-80
2023/07/23 14:55:59;;;;;;;;;;;;;;;;;;;;;
2023/07/23 14:58:27;;;;;;;3.50;2.10;;;;;;;;;;5052628;28;20054;-80
2023/07/23 15:01:03;;;;;;;;;;;;;;;;;;;;;
2023/07/23 15:04:37;;;;;;;2.03;1.70;;;;;;;;;;5057728;28;20048;-79
2023/07/23 15:06:47;;;;;;;2.40;1.90;;;;;;;;;;5028613;28;20041;-80
2023/07/23 15:23:10;;;;;;;2.83;2.00;;;;;;;;;;4938316;29;20628;-79
2023/07/23 15:26:04;;;;;;;4.18;2.05;;;;;;;;;;4953487;28;20077;-79
2023/07/23 15:32:17;;;;;;;2.20;1.70;;;;;;;;;;4909146;29;19922;-80
2023/07/23 15:38:04;;;;;;;3.05;1.70;;;;;;;;;;4832806;29;20552;-79
2023/07/23 15:40:51;;;;;;;4.15;1.90;;;;;;;;;;4847689;29;20045;-79
2023/07/23 15:43:17;;;;;;;4.18;1.75;;;;;;;;;;5019652;28;20040;-79
2023/07/23 15:46:26;;;;;;;2.17;1.80;;;;;;;;;;5052603;28;20432;-79
2023/07/23 15:50:01;;;;;;;2.10;1.70;;;;;;;;;;4916892;29;20054;-79
2023/07/23 15:52:40;;;;;;;2.75;1.80;;;;;;;;;;4883330;29;20120;-79
2023/07/23 15:55:11;;;;;;;3.65;1.98;;;;;;;;;;4919232;29;20094;-79
2023/07/23 15:57:37;;;;;;;4.55;1.70;;;;;;;;;;4923343;29;20521;-79
2023/07/23 16:00:18;;;;;;;2.97;1.83;;;;;;;;;;4922770;29;20220;-79
2023/07/23 16:02:49;;;;;;;3.67;2.13;;;;;;;;;;4934425;29;20517;-79
2023/07/23 16:05:17;;;;;;;2.75;1.60;;;;;;;;;;4918925;29;20433;-79
2023/07/23 16:07:56;;;;;;;;;;;;;;;;;;;;;
2023/07/23 16:10:32;;;;;;;2.67;2.00;;;;;;;;;;4936666;28;20060;-79
2023/07/23 16:13:31;;;;;;;;;;;;;;;;;;;;;
2023/07/23 16:16:02;;;;;;;2.90;2.00;;;;;;;;;;4936407;29;20049;-79
2023/07/23 16:18:28;;;;;;;2.78;2.10;;;;;;;;;;4928691;28;20035;-79
2023/07/23 16:21:36;;;;;;;2.38;1.67;;;;;;;;;;5058648;28;20041;-79
2023/07/23 16:24:31;;;;;;;3.45;2.00;;;;;;;;;;5043422;28;20130;-79
2023/07/23 16:27:18;;;;;;;2.63;1.80;;;;;;;;;;5024978;28;20045;-79
2023/07/23 16:37:12;;;;;;;3.38;2.10;;;;;;;;;;4927704;28;20049;-79
2023/07/23 16:39:53;;;;;;;2.17;1.90;;;;;;;;;;5036201;28;20041;-79
2023/07/23 16:42:41;;;;;;;5.93;1.90;;;;;;;;;;5051632;28;20040;-79
2023/07/23 16:45:20;;;;;;;2.58;2.00;;;;;;;;;;5049612;28;20555;-79
2023/07/23 16:51:11;;;;;;;3.88;1.92;;;;;;;;;;5014679;28;20094;-79
2023/07/23 16:54:01;;;;;;;2.80;1.83;;;;;;;;;;5000282;28;20033;-79
2023/07/23 17:00:23;;;;;;;;;;;;;;;;;;;;;
2023/07/23 17:03:24;;;;;;;;;;;;;;;;;;;;;
2023/07/23 17:09:27;;;;;;;3.63;2.15;;;;;;;;;;4890780;29;20032;-79
2023/07/23 17:12:11;;;;;;;;;;;;;;;;;;4867804;29;20040;-79
2023/07/23 17:18:13;;;;;;;3.42;2.30;;;;;;;;;;4864948;29;20076;-79
2023/07/23 17:20:41;;;;;;;3.03;2.25;;;;;;;;;;4868505;29;20037;-79
2023/07/23 17:23:22;;;;;;;3.78;2.38;;;;;;;;;;4932533;28;20054;-79
2023/07/23 17:25:53;;;;;;;5.57;2.55;;;;;;;;;;4963617;28;20458;-79
2023/07/23 17:28:54;;;;;;;;;;;;;;;;;;;;;
2023/07/23 17:31:33;;;;;;;4.10;2.67;;;;;;;;;;4955394;28;20047;-79
2023/07/23 17:34:35;;;;;;;4.70;2.90;;;;;;;;;;4934738;28;20086;-79
2023/07/23 17:37:40;;;;;;;5.90;3.65;;;;;;;;;;4985599;28;20605;-79
2023/07/23 17:43:47;;;;;;;4.72;2.50;;;;;;;;;;5039630;28;20068;-79
2023/07/23 17:46:18;;;;;;;4.88;2.78;;;;;;;;;;5029495;28;20426;-79
2023/07/23 17:49:08;;;;;;;4.07;2.20;;;;;;;;;;5043488;28;20103;-79
2023/07/23 17:57:56;;;;;;;3.10;1.60;;;;;;;;;;5057535;28;20571;-79
2023/07/23 18:00:25;;;;;;;3.78;1.60;;;;;;;;;;5070290;28;20052;-79
2023/07/23 18:20:12;;;;;;;2.33;1.17;;;;;;;;;;4936328;28;20110;-79
2023/07/23 18:23:22;;;;;;;3.00;1.35;;;;;;;;;;4992045;28;20049;-79
2023/07/23 18:25:56;;;;;;;2.63;1.20;;;;;;;;;;5035684;28;20051;-79
2023/07/23 18:28:36;;;;;;;4.55;1.30;;;;;;;;;;5042873;28;20036;-79
2023/07/23 18:38:12;;;;;;;3.53;1.20;;;;;;;;;;4981462;28;20646;-79
2023/07/23 18:41:05;;;;;;;3.10;1.10;;;;;;;;;;5056861;28;20033;-79
2023/07/23 18:44:38;;;;;;;2.63;1.20;;;;;;;;;;5043522;28;20465;-79
2023/07/23 18:50:28;;;;;;;2.55;1.02;;;;;;;;;;4927332;28;20049;-79
2023/07/23 18:53:20;;;;;;;1.75;1.10;;;;;;;;;;5055175;28;20577;-79
2023/07/23 18:55:46;;;;;;;2.15;1.17;;;;;;;;;;5053776;28;20088;-79
2023/07/23 18:58:11;;;;;;;7.88;1.30;;;;;;;;;;5052608;28;20177;-79
2023/07/23 19:00:59;;;;;;;;;;;;;;;;;;;;;
2023/07/23 19:03:28;;;;;;;1.85;1.10;;;;;;;;;;5036275;28;20071;-79
2023/07/23 19:05:57;;;;;;;2.17;1.10;;;;;;;;;;5040142;28;20063;-79
2023/07/23 19:08:23;;;;;;;2.88;1.30;;;;;;;;;;5036286;28;20041;-80
2023/07/23 19:10:49;;;;;;;1.20;0.80;;;;;;;;;;5041724;28;20526;-80
2023/07/23 19:13:18;;;;;;;2.55;0.88;;;;;;;;;;5037882;28;20029;-80
2023/07/23 19:15:44;;;;;;;2.88;0.90;;;;;;;;;;5040622;28;20041;-80
2023/07/23 19:18:10;;;;;;;0.93;0.80;;;;;;;;;;5045253;28;20033;-80
2023/07/23 19:20:39;;;;;;;1.65;0.90;;;;;;;;;;5034745;28;20033;-80
2023/07/23 19:23:07;;;;;;;1.73;0.60;;;;;;;;;;5041697;28;20217;-80
2023/07/23 19:25:34;;;;;;;0.98;0.73;;;;;;;;;;5036756;28;20020;-80
2023/07/23 19:28:00;;;;;;;1.95;0.70;;;;;;;;;;5035362;28;20025;-79
2023/07/23 19:34:58;;;;;;;4.30;0.88;;;;;;;;;;5004067;28;20617;-79
2023/07/23 19:37:45;;;;;;;2.53;1.00;;;;;;;;;;5028189;28;20029;-79
2023/07/23 19:40:43;;;;;;;1.80;0.90;;;;;;;;;;5028465;28;20052;-79
2023/07/23 19:43:09;;;;;;;1.27;0.80;;;;;;;;;;5022703;28;20064;-80
2023/07/23 19:45:35;;;;;;;1.05;0.80;;;;;;;;;;5036819;28;20094;-80
2023/07/23 19:48:02;;;;;;;2.22;0.77;;;;;;;;;;5062811;28;20055;-80
2023/07/23 19:50:28;;;;;;;1.10;1.00;;;;;;;;;;5068361;28;20504;-80
2023/07/23 19:52:53;;;;;;;0.80;0.70;;;;;;;;;;5077932;28;20040;-80
2023/07/23 19:55:19;;;;;;;1.08;0.75;;;;;;;;;;5067290;28;20039;-80
2023/07/23 19:57:45;;;;;;;1.73;0.80;;;;;;;;;;5081581;28;20063;-80